createdAt,value
2023-04-17T00:00:25.887Z,101991.69
2023-04-17T00:02:53.868Z,101997.28
2023-04-17T00:05:23.352Z,101987.31
2023-04-17T00:07:51.405Z,101985.44
2023-04-17T00:10:19.216Z,101991.91
2023-04-17T00:12:47.092Z,101989.16
2023-04-17T00:15:16.453Z,101988.19
2023-04-17T00:17:44.509Z,101985.59
2023-04-17T00:20:13.392Z,101981.97
2023-04-17T00:22:41.590Z,101982.84
2023-04-17T00:25:12.856Z,101979.22
2023-04-17T00:27:40.766Z,101982.94
2023-04-17T00:30:11.221Z,101983.81
2023-04-17T00:32:40.533Z,101976.47
2023-04-17T00:35:09.013Z,101978.34
2023-04-17T00:37:36.966Z,101984.81
2023-04-17T00:40:05.419Z,101976.59
2023-04-17T00:42:33.415Z,101977.47
2023-04-17T00:45:01.211Z,101972.97
2023-04-17T00:47:29.277Z,101980.22
2023-04-17T00:49:58.759Z,101967.38
2023-04-17T00:52:29.811Z,101970.09
2023-04-17T00:54:59.533Z,101965.50
2023-04-17T00:57:28.005Z,101971.97
2023-04-17T00:59:57.946Z,101967.38
2023-04-17T01:02:26.893Z,101970.09
2023-04-17T01:04:54.857Z,101970.22
2023-04-17T01:07:24.758Z,101962.75
2023-04-17T01:09:52.760Z,101969.22
2023-04-17T01:12:22.388Z,101970.09
2023-04-17T01:14:51.050Z,101969.22
2023-04-17T01:17:20.456Z,101968.34
2023-04-17T01:19:48.997Z,101962.00
2023-04-17T01:22:17.446Z,101967.47
2023-04-17T01:24:47.089Z,101966.50
2023-04-17T01:27:16.015Z,101972.97
2023-04-17T01:29:46.147Z,101967.47
2023-04-17T01:32:14.157Z,101969.34
2023-04-17T01:34:42.321Z,101973.94
2023-04-17T01:37:10.305Z,101963.97
2023-04-17T01:39:38.240Z,101969.34
2023-04-17T01:42:07.765Z,101971.09
2023-04-17T01:44:37.509Z,101971.22
2023-04-17T01:47:05.656Z,101972.09
2023-04-17T01:49:33.900Z,101972.09
2023-04-17T01:52:01.864Z,101969.44
2023-04-17T01:54:29.709Z,101972.19
2023-04-17T01:56:57.874Z,101978.56
2023-04-17T01:59:27.152Z,101977.47
2023-04-17T02:01:56.276Z,101973.94
2023-04-17T02:04:24.509Z,101971.31
2023-04-17T02:06:52.638Z,101972.19
2023-04-17T02:09:20.453Z,101979.53
2023-04-17T02:11:48.229Z,101974.06
2023-04-17T02:14:18.783Z,101974.94
2023-04-17T02:16:48.462Z,101976.69
2023-04-17T02:19:16.196Z,101971.31
2023-04-17T02:21:43.949Z,101974.06
2023-04-17T02:24:11.717Z,101975.03
2023-04-17T02:26:40.519Z,101971.31
2023-04-17T02:29:08.412Z,101970.53
2023-04-17T02:31:37.250Z,101980.66
2023-04-17T02:34:06.413Z,101980.53
2023-04-17T02:36:34.669Z,101977.06
2023-04-17T02:39:02.426Z,101975.16
2023-04-17T02:41:30.155Z,101976.19
2023-04-17T02:43:59.177Z,101978.03
2023-04-17T02:46:27.142Z,101976.28
2023-04-17T02:48:55.008Z,101973.66
2023-04-17T02:51:24.221Z,101974.53
2023-04-17T02:53:52.004Z,101982.97
2023-04-17T02:56:20.277Z,101976.63
2023-04-17T02:58:48.068Z,101973.88
2023-04-17T03:01:15.919Z,101983.97
2023-04-17T03:03:46.619Z,101983.22
2023-04-17T03:06:16.083Z,101985.97
2023-04-17T03:08:45.294Z,101984.09
2023-04-17T03:11:13.361Z,101984.22
2023-04-17T03:13:41.307Z,101977.97
2023-04-17T03:16:09.288Z,101992.56
2023-04-17T03:18:41.493Z,101977.84
2023-04-17T03:21:09.559Z,101985.41
2023-04-17T03:23:37.790Z,101990.03
2023-04-17T03:26:08.818Z,101991.78
2023-04-17T03:28:37.351Z,101986.56
2023-04-17T03:31:06.521Z,101989.28
2023-04-17T03:33:37.815Z,101987.53
2023-04-17T03:36:07.051Z,101984.78
2023-04-17T03:38:38.027Z,101985.66
2023-04-17T03:41:08.801Z,101988.53
2023-04-17T03:43:36.569Z,101988.63
2023-04-17T03:46:04.540Z,101985.00
2023-04-17T03:48:33.188Z,101990.59
2023-04-17T03:51:01.065Z,101988.84
2023-04-17T03:53:30.919Z,101989.84
2023-04-17T03:56:01.484Z,101993.59
2023-04-17T03:58:35.638Z,101990.09
2023-04-17T04:01:04.694Z,101990.25
2023-04-17T04:03:36.935Z,101993.88
2023-04-17T04:06:07.250Z,101997.41
2023-04-17T04:08:35.514Z,102001.13
2023-04-17T04:11:03.459Z,101997.50
2023-04-17T04:13:41.093Z,101999.38
2023-04-17T04:16:09.688Z,101998.59
2023-04-17T04:18:39.901Z,102003.34
2023-04-17T04:21:08.465Z,102002.47
2023-04-17T04:23:41.168Z,102005.31
2023-04-17T04:26:11.846Z,102004.66
2023-04-17T04:28:47.469Z,102004.75
2023-04-17T04:31:21.678Z,102004.88
2023-04-17T04:33:54.988Z,102007.75
2023-04-17T04:36:23.937Z,102005.09
2023-04-17T04:39:02.028Z,102014.31
2023-04-17T04:41:34.272Z,102012.66
2023-04-17T04:44:06.117Z,102017.06
2023-04-17T04:46:37.006Z,102024.63
2023-04-17T04:49:06.856Z,102022.78
2023-04-17T04:51:36.426Z,102024.50
2023-04-17T04:54:07.480Z,102028.25
2023-04-17T04:56:44.842Z,102023.75
2023-04-17T04:59:15.561Z,102031.00
2023-04-17T05:01:50.501Z,102030.22
2023-04-17T05:04:21.514Z,102028.38
2023-04-17T05:06:54.010Z,102030.13
2023-04-17T05:09:22.257Z,102029.25
2023-04-17T05:11:52.744Z,102035.59
2023-04-17T05:14:22.261Z,102039.09
2023-04-17T05:16:50.995Z,102041.97
2023-04-17T05:19:19.914Z,102039.09
2023-04-17T05:21:55.832Z,102044.56
2023-04-17T05:24:24.792Z,102047.31
2023-04-17T05:26:53.518Z,102050.94
2023-04-17T05:29:24.760Z,102048.97
2023-04-17T05:31:54.675Z,102050.94
2023-04-17T05:34:42.798Z,102049.16
2023-04-17T05:37:11.493Z,102045.44
2023-04-17T05:39:39.487Z,102053.66
2023-04-17T05:42:09.479Z,102051.81
2023-04-17T05:44:38.740Z,102049.94
2023-04-17T05:47:07.169Z,102050.19
2023-04-17T05:49:35.241Z,102051.03
2023-04-17T05:52:03.221Z,102050.19
2023-04-17T05:54:31.166Z,102048.28
2023-04-17T05:56:59.533Z,102046.56
2023-04-17T05:59:28.343Z,102052.94
2023-04-17T06:01:59.461Z,102054.66
2023-04-17T06:04:29.468Z,102056.66
2023-04-17T06:06:57.670Z,102065.75
2023-04-17T06:17:46.425Z,102054.56
2023-04-17T06:20:36.239Z,102059.94
2023-04-17T06:23:30.173Z,102066.31
2023-04-17T06:46:40.059Z,102082.94
2023-04-17T06:49:09.453Z,102082.72
2023-04-17T06:51:37.322Z,102089.00
2023-04-17T06:54:05.474Z,102084.28
2023-04-17T06:56:33.291Z,102099.59
2023-04-17T06:59:02.483Z,102104.00
2023-04-17T07:01:31.494Z,102096.75
2023-04-17T07:03:59.507Z,102098.53
2023-04-17T07:06:29.515Z,102095.56
2023-04-17T07:08:57.303Z,102097.75
2023-04-17T07:11:25.156Z,102106.84
2023-04-17T07:13:52.995Z,102101.38
2023-04-17T07:16:22.753Z,102100.59
2023-04-17T07:18:51.125Z,102113.41
2023-04-17T07:21:19.075Z,102107.94
2023-04-17T07:23:48.286Z,102116.16
2023-04-17T07:26:16.389Z,102118.16
2023-04-17T07:28:44.152Z,102125.50
2023-04-17T07:31:12.042Z,102121.97
2023-04-17T07:33:40.672Z,102117.56
2023-04-17T07:36:11.303Z,102131.28
2023-04-17T07:38:40.948Z,102133.38
2023-04-17T07:41:11.649Z,102136.09
2023-04-17T07:43:39.523Z,102134.44
2023-04-17T07:46:07.286Z,102134.44
2023-04-17T07:48:35.071Z,102130.84
2023-04-17T07:51:02.992Z,102133.47
2023-04-17T07:53:30.870Z,102134.25
2023-04-17T07:55:59.384Z,102132.38
2023-04-17T07:58:28.780Z,102134.78
2023-04-17T08:00:56.579Z,102124.72
2023-04-17T08:03:25.830Z,102128.13
2023-04-17T08:05:54.140Z,102130.53
2023-04-17T08:08:23.703Z,102140.41
2023-04-17T08:10:52.136Z,102134.69
2023-04-17T08:13:19.952Z,102144.47
2023-04-17T08:15:49.120Z,102146.88
2023-04-17T08:18:16.912Z,102148.63
2023-04-17T08:20:44.719Z,102148.41
2023-04-17T08:23:12.504Z,102150.03
2023-04-17T08:25:40.280Z,102148.97
2023-04-17T08:28:08.164Z,102142.50
2023-04-17T08:30:36.007Z,102149.53
2023-04-17T08:33:05.349Z,102153.78
2023-04-17T08:35:33.311Z,102153.69
2023-04-17T08:38:01.195Z,102157.09
2023-04-17T08:40:29.074Z,102157.78
2023-04-17T08:42:56.936Z,102158.19
2023-04-17T08:45:25.191Z,102167.00
2023-04-17T08:47:53.108Z,102160.06
2023-04-17T08:50:23.263Z,102164.03
2023-04-17T08:52:52.999Z,102159.06
2023-04-17T08:55:22.413Z,102166.84
2023-04-17T08:57:58.680Z,102164.41
2023-04-17T09:00:28.250Z,102162.22
2023-04-17T09:02:57.729Z,102170.09
2023-04-17T09:05:30.377Z,102162.41
2023-04-17T09:08:12.941Z,102165.03
2023-04-17T09:10:42.936Z,102167.91
2023-04-17T09:13:14.258Z,102173.16
2023-04-17T09:15:43.306Z,102172.06
2023-04-17T09:18:27.444Z,102170.09
2023-04-17T09:20:57.643Z,102177.31
2023-04-17T09:23:25.653Z,102169.09
2023-04-17T09:26:07.642Z,102173.47
2023-04-17T09:28:39.232Z,102168.84
2023-04-17T09:31:11.243Z,102171.00
2023-04-17T09:33:56.979Z,102170.78
2023-04-17T09:36:27.455Z,102174.16
2023-04-17T09:38:55.990Z,102169.13
2023-04-17T09:41:25.515Z,102171.31
2023-04-17T09:43:54.791Z,102165.34
2023-04-17T09:46:38.377Z,102164.53
2023-04-17T09:49:12.002Z,102183.28
2023-04-17T09:51:41.764Z,102171.03
2023-04-17T09:54:11.397Z,102179.56
2023-04-17T09:56:41.176Z,102173.97
2023-04-17T09:59:09.854Z,102161.50
2023-04-17T10:01:40.773Z,102161.03
2023-04-17T10:04:09.080Z,102170.91
2023-04-17T10:06:37.204Z,102166.06
2023-04-17T10:09:08.083Z,102164.94
2023-04-17T10:11:38.564Z,102163.97
2023-04-17T10:14:13.035Z,102159.94
2023-04-17T10:16:42.786Z,102159.84
2023-04-17T10:19:31.097Z,102161.47
2023-04-17T10:22:31.671Z,102165.94
2023-04-17T10:25:20.493Z,102146.59
2023-04-17T10:27:54.028Z,102148.72
2023-04-17T10:30:23.840Z,102147.63
2023-04-17T10:33:21.745Z,102139.75
2023-04-17T10:35:50.461Z,102141.19
2023-04-17T10:38:32.202Z,102143.31
2023-04-17T10:41:05.039Z,102140.06
2023-04-17T10:43:33.017Z,102130.69
2023-04-17T10:46:06.515Z,102140.19
2023-04-17T10:48:36.332Z,102136.28
2023-04-17T10:51:37.612Z,102134.94
2023-04-17T10:54:06.476Z,102135.53
2023-04-17T10:56:39.604Z,102137.66
2023-04-17T10:59:09.034Z,102134.78
2023-04-17T11:01:40.566Z,102128.06
2023-04-17T11:04:10.527Z,102128.94
2023-04-17T11:06:40.502Z,102126.91
2023-04-17T11:09:10.515Z,102127.53
2023-04-17T11:11:44.548Z,102128.28
2023-04-17T11:14:15.540Z,102122.66
2023-04-17T11:16:45.275Z,102129.91
2023-04-17T11:19:14.433Z,102129.91
2023-04-17T11:21:44.076Z,102117.88
2023-04-17T11:24:12.088Z,102122.50
2023-04-17T11:26:45.595Z,102129.78
2023-04-17T11:29:17.072Z,102123.50
2023-04-17T11:31:45.667Z,102121.03
2023-04-17T11:34:14.435Z,102120.91
2023-04-17T11:36:49.338Z,102118.16
2023-04-17T11:39:17.289Z,102123.78
2023-04-17T11:41:46.834Z,102120.50
2023-04-17T11:44:15.271Z,102127.91
2023-04-17T11:46:43.284Z,102127.66
2023-04-17T11:49:11.702Z,102123.03
2023-04-17T11:51:39.835Z,102130.13
2023-04-17T11:54:07.826Z,102124.38
2023-04-17T11:56:35.688Z,102127.00
2023-04-17T11:59:06.118Z,102139.50
2023-04-17T12:01:34.017Z,102130.88
2023-04-17T12:04:02.098Z,102129.72
2023-04-17T12:06:37.086Z,102125.75
2023-04-17T12:09:06.966Z,102121.00
2023-04-17T12:11:34.931Z,102124.22
2023-04-17T12:14:05.277Z,102118.34
2023-04-17T12:16:33.295Z,102119.94
2023-04-17T12:19:01.398Z,102121.44
2023-04-17T12:21:29.304Z,102110.16
2023-04-17T12:23:57.069Z,102111.78
2023-04-17T12:26:25.666Z,102100.38
2023-04-17T12:28:53.570Z,102111.00
2023-04-17T12:31:22.752Z,102109.44
2023-04-17T12:33:52.435Z,102104.69
2023-04-17T12:36:20.359Z,102114.41
2023-04-17T12:38:48.204Z,102113.28
2023-04-17T12:41:16.001Z,102116.50
2023-04-17T12:43:43.999Z,102109.13
2023-04-17T12:46:11.934Z,102106.22
2023-04-17T12:48:41.114Z,102107.88
2023-04-17T12:51:08.978Z,102109.88
2023-04-17T12:53:36.745Z,102110.63
2023-04-17T12:56:04.834Z,102096.72
2023-04-17T12:58:33.501Z,102107.44
2023-04-17T13:01:01.369Z,102101.06
2023-04-17T13:03:29.386Z,102094.53
2023-04-17T13:05:58.985Z,102097.78
2023-04-17T13:08:26.798Z,102093.16
2023-04-17T13:10:54.667Z,102090.97
2023-04-17T13:13:22.492Z,102096.38
2023-04-17T13:15:50.465Z,102093.47
2023-04-17T13:18:18.488Z,102086.97
2023-04-17T13:20:46.463Z,102086.53
2023-04-17T13:23:15.614Z,102100.84
2023-04-17T13:25:43.426Z,102091.41
2023-04-17T13:28:11.697Z,102085.63
2023-04-17T13:30:39.929Z,102084.50
2023-04-17T13:33:08.023Z,102090.47
2023-04-17T13:35:35.996Z,102087.69
2023-04-17T13:38:04.034Z,102093.84
2023-04-17T13:40:33.194Z,102088.31
2023-04-17T13:43:01.288Z,102089.47
2023-04-17T13:45:29.142Z,102086.69
2023-04-17T13:47:57.050Z,102081.31
2023-04-17T13:50:24.930Z,102084.19
2023-04-17T13:52:52.709Z,102082.56
2023-04-17T13:55:20.735Z,102085.50
2023-04-17T13:57:51.058Z,102081.72
2023-04-17T14:00:20.864Z,102089.25
2023-04-17T14:02:48.785Z,102081.88
2023-04-17T14:05:17.032Z,102077.22
2023-04-17T14:07:45.224Z,102069.81
2023-04-17T14:10:13.239Z,102073.28
2023-04-17T14:12:41.049Z,102070.28
2023-04-17T14:15:11.587Z,102072.78
2023-04-17T14:17:43.069Z,102071.00
2023-04-17T14:20:12.082Z,102071.59
2023-04-17T14:22:39.966Z,102067.69
2023-04-17T14:25:08.689Z,102068.56
2023-04-17T14:27:36.596Z,102069.44
2023-04-17T14:30:05.151Z,102057.53
2023-04-17T14:32:34.579Z,102054.50
2023-04-17T14:35:02.745Z,102060.91
2023-04-17T14:37:30.638Z,102052.47
2023-04-17T14:39:59.049Z,102049.56
2023-04-17T14:42:28.484Z,102051.47
2023-04-17T14:44:56.390Z,102048.56
2023-04-17T14:47:24.314Z,102059.47
2023-04-17T14:49:53.628Z,102054.81
2023-04-17T14:52:21.495Z,102051.31
2023-04-17T14:54:49.359Z,102054.81
2023-04-17T14:57:17.627Z,102057.72
2023-04-17T14:59:45.558Z,102054.81
2023-04-17T15:02:13.434Z,102052.47
2023-04-17T15:04:42.352Z,102060.75
2023-04-17T15:07:11.680Z,102049.72
2023-04-17T15:09:39.547Z,102049.00
2023-04-17T15:12:07.771Z,102050.00
2023-04-17T15:14:35.642Z,102043.75
2023-04-17T15:17:06.832Z,102043.75
2023-04-17T15:19:35.109Z,102043.00
2023-04-17T15:22:02.927Z,102042.13
2023-04-17T15:24:32.593Z,102041.25
2023-04-17T15:27:01.264Z,102040.81
2023-04-17T15:29:29.423Z,102035.41
2023-04-17T15:31:57.519Z,102050.22
2023-04-17T15:34:25.398Z,102045.88
2023-04-17T15:36:53.232Z,102041.50
2023-04-17T15:39:21.148Z,102045.25
2023-04-17T15:41:50.923Z,102041.88
2023-04-17T15:44:18.874Z,102040.25
2023-04-17T15:46:46.751Z,102036.63
2023-04-17T15:49:14.641Z,102036.75
2023-04-17T15:51:42.645Z,102037.75
2023-04-17T15:54:11.977Z,102041.53
2023-04-17T15:56:40.233Z,102036.16
2023-04-17T15:59:09.619Z,102036.00
2023-04-17T16:01:37.529Z,102035.44
2023-04-17T16:04:05.928Z,102023.66
2023-04-17T16:06:34.560Z,102033.19
2023-04-17T16:09:03.487Z,102033.50
2023-04-17T16:11:31.303Z,102037.38
2023-04-17T16:13:59.271Z,102032.13
2023-04-17T16:16:29.519Z,102033.88
2023-04-17T16:18:57.733Z,102025.16
2023-04-17T16:21:26.799Z,102023.41
2023-04-17T16:23:54.795Z,102031.78
2023-04-17T16:26:23.382Z,102025.41
2023-04-17T16:28:51.332Z,102024.69
2023-04-17T16:31:21.196Z,102024.81
2023-04-17T16:33:50.513Z,102025.81
2023-04-17T16:36:18.364Z,102021.44
2023-04-17T16:38:47.246Z,102021.31
2023-04-17T16:41:15.186Z,102025.97
2023-04-17T16:43:43.219Z,102023.19
2023-04-17T16:46:22.175Z,102016.69
2023-04-17T16:48:54.245Z,102022.19
2023-04-17T16:51:23.729Z,102023.19
2023-04-17T16:53:51.708Z,102022.19
2023-04-17T16:56:19.574Z,102027.72
2023-04-17T16:58:47.366Z,102016.69
2023-04-17T17:01:15.274Z,102015.81
2023-04-17T17:03:43.490Z,102012.03
2023-04-17T17:06:12.948Z,102020.19
2023-04-17T17:08:43.110Z,102016.81
2023-04-17T17:11:10.991Z,102012.31
2023-04-17T17:13:38.819Z,102016.94
2023-04-17T17:16:06.693Z,102018.97
2023-04-17T17:18:34.601Z,102017.34
2023-04-17T17:21:02.457Z,102016.47
2023-04-17T17:23:32.198Z,102019.25
2023-04-17T17:26:00.222Z,102025.00
2023-04-17T17:28:28.240Z,102029.66
2023-04-17T17:31:00.690Z,102024.28
2023-04-17T17:33:28.674Z,102013.78
2023-04-17T17:35:56.563Z,102020.03
2023-04-17T17:38:24.727Z,102015.66
2023-04-17T17:40:54.191Z,102014.78
2023-04-17T17:43:22.112Z,102016.94
2023-04-17T17:45:50.328Z,102020.72
2023-04-17T17:48:20.453Z,102019.97
2023-04-17T17:50:48.810Z,102024.59
2023-04-17T17:53:18.530Z,102026.59
2023-04-17T17:55:53.081Z,102028.34
2023-04-17T17:58:21.757Z,102033.41
2023-04-17T18:00:49.945Z,102034.28
2023-04-17T18:03:18.295Z,102040.78
2023-04-17T18:05:47.403Z,102032.66
2023-04-17T18:08:15.707Z,102031.06
2023-04-17T18:10:43.599Z,102032.94
2023-04-17T18:13:12.858Z,102034.81
2023-04-17T18:15:40.742Z,102039.56
2023-04-17T18:18:08.846Z,102036.94
2023-04-17T18:20:38.900Z,102043.34
2023-04-17T18:23:06.745Z,102043.59
2023-04-17T18:25:35.645Z,102049.38
2023-04-17T18:28:03.780Z,102044.88
2023-04-17T18:30:33.292Z,102044.88
2023-04-17T18:33:01.169Z,102046.09
2023-04-17T18:35:29.320Z,102048.13
2023-04-17T18:37:57.351Z,102040.84
2023-04-17T18:40:25.247Z,102044.75
2023-04-17T18:42:53.160Z,102051.38
2023-04-17T18:45:20.952Z,102046.88
2023-04-17T18:47:50.494Z,102047.75
2023-04-17T18:50:18.424Z,102050.78
2023-04-17T18:52:49.625Z,102041.75
2023-04-17T18:55:18.975Z,102066.09
2023-04-17T18:57:46.956Z,102049.56
2023-04-17T19:00:15.226Z,102055.53
2023-04-17T19:02:43.236Z,102059.28
2023-04-17T19:05:12.565Z,102055.53
2023-04-17T19:07:40.531Z,102050.28
2023-04-17T19:10:09.369Z,102055.78
2023-04-17T19:12:37.413Z,102057.81
2023-04-17T19:15:06.522Z,102052.31
2023-04-17T19:17:34.548Z,102050.69
2023-04-17T19:20:02.479Z,102047.03
2023-04-17T19:22:31.823Z,102049.81
2023-04-17T19:24:59.688Z,102044.53
2023-04-17T19:27:27.496Z,102057.44
2023-04-17T19:29:55.503Z,102063.09
2023-04-17T19:32:23.400Z,102061.34
2023-04-17T19:34:51.488Z,102064.22
2023-04-17T19:37:19.333Z,102060.72
2023-04-17T19:39:48.631Z,102068.09
2023-04-17T19:42:16.552Z,102058.34
2023-04-17T19:44:44.432Z,102058.34
2023-04-17T19:47:12.795Z,102060.34
2023-04-17T19:49:46.589Z,102063.09
2023-04-17T19:52:15.067Z,102058.84
2023-04-17T19:54:45.393Z,102067.25
2023-04-17T19:57:14.661Z,102057.25
2023-04-17T19:59:42.564Z,102065.75
2023-04-17T20:02:12.205Z,102057.59
2023-04-17T20:04:40.112Z,102061.63
2023-04-17T20:07:08.002Z,102053.50
2023-04-17T20:09:35.877Z,102056.50
2023-04-17T20:12:04.023Z,102056.75
2023-04-17T20:14:33.388Z,102056.75
2023-04-17T20:17:01.316Z,102057.13
2023-04-17T20:19:29.158Z,102055.53
2023-04-17T20:21:56.978Z,102051.03
2023-04-17T20:24:24.877Z,102045.63
2023-04-17T20:26:52.823Z,102052.13
2023-04-17T20:29:22.572Z,102051.25
2023-04-17T20:31:51.951Z,102058.75
2023-04-17T20:34:19.922Z,102047.16
2023-04-17T20:36:47.809Z,102047.38
2023-04-17T20:39:16.042Z,102052.13
2023-04-17T20:41:43.882Z,102050.53
2023-04-17T20:44:12.197Z,102047.03
2023-04-17T20:46:40.360Z,102044.47
2023-04-17T20:49:09.640Z,102047.09
2023-04-17T20:51:37.540Z,102050.25
2023-04-17T20:54:05.687Z,102041.13
2023-04-17T20:56:33.731Z,102042.22
2023-04-17T20:59:01.574Z,102047.84
2023-04-17T21:01:31.614Z,102045.97
2023-04-17T21:03:59.660Z,102044.50
2023-04-17T21:06:29.012Z,102045.38
2023-04-17T21:08:57.041Z,102044.59
2023-04-17T21:11:24.970Z,102041.97
2023-04-17T21:13:52.856Z,102045.72
2023-04-17T21:16:20.729Z,102042.09
2023-04-17T21:18:48.709Z,102036.72
2023-04-17T21:21:16.640Z,102039.63
2023-04-17T21:23:45.833Z,102042.38
2023-04-17T21:26:13.685Z,102039.84
2023-04-17T21:28:41.609Z,102037.22
2023-04-17T21:31:10.392Z,102042.84
2023-04-17T21:33:38.375Z,102040.22
2023-04-17T21:36:06.665Z,102041.22
2023-04-17T21:38:34.500Z,102044.09
2023-04-17T21:41:03.972Z,102045.97
2023-04-17T21:43:31.938Z,102046.31
2023-04-17T21:46:00.021Z,102048.34
2023-04-17T21:48:27.911Z,102048.47
2023-04-17T21:51:01.708Z,102051.31
2023-04-17T21:53:29.548Z,102052.69
2023-04-17T21:55:57.576Z,102057.44
2023-04-17T21:58:26.891Z,102053.03
2023-04-17T22:00:56.545Z,102060.69
2023-04-17T22:03:24.477Z,102056.41
2023-04-17T22:05:54.048Z,102053.91
2023-04-17T22:08:21.916Z,102054.16
2023-04-17T22:10:49.761Z,102049.75
2023-04-17T22:13:18.272Z,102054.53
2023-04-17T22:15:49.141Z,102051.88
2023-04-17T22:18:17.067Z,102051.34
2023-04-17T22:20:45.165Z,102057.97
2023-04-17T22:23:13.050Z,102050.97
2023-04-17T22:25:40.852Z,102051.19
2023-04-17T22:28:08.789Z,102056.06
2023-04-17T22:30:36.703Z,102063.66
2023-04-17T22:33:06.116Z,102052.88
2023-04-17T22:35:33.988Z,102057.84
2023-04-17T22:38:01.814Z,102054.59
2023-04-17T22:40:30.883Z,102056.69
2023-04-17T22:42:59.005Z,102053.31
2023-04-17T22:45:27.009Z,102048.91
2023-04-17T22:47:54.869Z,102055.66
2023-04-17T22:50:24.038Z,102061.16
2023-04-17T22:52:51.858Z,102053.25
2023-04-17T22:55:19.902Z,102053.34
2023-04-17T22:57:47.688Z,102060.97
2023-04-17T23:00:17.190Z,102058.31
2023-04-17T23:02:45.094Z,102051.31
2023-04-17T23:05:12.962Z,102051.56
2023-04-17T23:07:42.327Z,102050.78
2023-04-17T23:10:10.966Z,102060.13
2023-04-17T23:12:38.856Z,102055.00
2023-04-17T23:15:08.328Z,102052.34
2023-04-17T23:17:36.172Z,102056.34
2023-04-17T23:20:04.447Z,102060.19
2023-04-17T23:22:32.296Z,102061.28
2023-04-17T23:25:01.574Z,102057.66
2023-04-17T23:27:29.415Z,102057.03
2023-04-17T23:29:58.720Z,102059.88
2023-04-17T23:32:26.931Z,102059.22
2023-04-17T23:34:55.037Z,102054.84
2023-04-17T23:37:22.939Z,102057.69
2023-04-17T23:39:50.729Z,102056.94
2023-04-17T23:42:19.876Z,102062.41
2023-04-17T23:44:47.777Z,102058.28
2023-04-17T23:47:16.092Z,102060.25
2023-04-17T23:49:43.883Z,102063.09
2023-04-17T23:52:11.709Z,102059.81
2023-04-17T23:54:39.517Z,102059.06
2023-04-17T23:57:07.296Z,102062.00
2023-04-17T23:59:36.451Z,102059.41
